sensor_id;sensor_type;location;lat;lon;timestamp;temperature;humidity
20815;DHT22;10568;48.176;16.316;2023-05-31T00:00:21;14.10;99.90
20815;DHT22;10568;48.176;16.316;2023-05-31T00:02:47;14.00;99.90
20815;DHT22;10568;48.176;16.316;2023-05-31T00:05:12;14.00;99.90
20815;DHT22;10568;48.176;16.316;2023-05-31T00:07:38;13.90;99.90
20815;DHT22;10568;48.176;16.316;2023-05-31T00:10:04;13.90;99.90
20815;DHT22;10568;48.176;16.316;2023-05-31T00:12:30;13.80;99.90
20815;DHT22;10568;48.176;16.316;2023-05-31T00:14:56;13.90;99.90
20815;DHT22;10568;48.176;16.316;2023-05-31T00:17:21;13.90;99.90
20815;DHT22;10568;48.176;16.316;2023-05-31T00:19:47;13.90;99.90
20815;DHT22;10568;48.176;16.316;2023-05-31T00:22:13;13.90;99.90
20815;DHT22;10568;48.176;16.316;2023-05-31T00:24:42;13.90;99.90
20815;DHT22;10568;48.176;16.316;2023-05-31T00:27:08;13.90;99.90
20815;DHT22;10568;48.176;16.316;2023-05-31T00:29:34;13.80;99.90
20815;DHT22;10568;48.176;16.316;2023-05-31T00:32:00;13.80;99.90
20815;DHT22;10568;48.176;16.316;2023-05-31T00:34:26;13.80;99.90
20815;DHT22;10568;48.176;16.316;2023-05-31T00:36:51;13.80;99.90
20815;DHT22;10568;48.176;16.316;2023-05-31T00:39:17;13.80;99.90
20815;DHT22;10568;48.176;16.316;2023-05-31T00:41:43;13.70;99.90
20815;DHT22;10568;48.176;16.316;2023-05-31T00:44:09;13.70;99.90
20815;DHT22;10568;48.176;16.316;2023-05-31T00:46:37;13.70;99.90
20815;DHT22;10568;48.176;16.316;2023-05-31T00:49:04;13.60;99.90
20815;DHT22;10568;48.176;16.316;2023-05-31T00:51:31;13.60;99.90
20815;DHT22;10568;48.176;16.316;2023-05-31T00:53:58;13.50;99.90
20815;DHT22;10568;48.176;16.316;2023-05-31T00:56:24;13.50;99.90
20815;DHT22;10568;48.176;16.316;2023-05-31T00:58:51;13.50;99.90
20815;DHT22;10568;48.176;16.316;2023-05-31T01:01:20;13.50;99.90
20815;DHT22;10568;48.176;16.316;2023-05-31T01:03:46;13.50;99.90
20815;DHT22;10568;48.176;16.316;2023-05-31T01:06:12;13.40;99.90
20815;DHT22;10568;48.176;16.316;2023-05-31T01:08:39;13.40;99.90
20815;DHT22;10568;48.176;16.316;2023-05-31T01:11:20;13.40;99.90
20815;DHT22;10568;48.176;16.316;2023-05-31T01:14:27;13.30;99.90
20815;DHT22;10568;48.176;16.316;2023-05-31T01:17:05;13.30;99.90
20815;DHT22;10568;48.176;16.316;2023-05-31T01:20:04;13.20;99.90
20815;DHT22;10568;48.176;16.316;2023-05-31T01:22:40;13.10;99.90
20815;DHT22;10568;48.176;16.316;2023-05-31T01:26:00;13.10;99.90
20815;DHT22;10568;48.176;16.316;2023-05-31T01:28:30;13.00;99.90
20815;DHT22;10568;48.176;16.316;2023-05-31T01:31:01;13.00;99.90
20815;DHT22;10568;48.176;16.316;2023-05-31T01:33:27;13.00;99.90
20815;DHT22;10568;48.176;16.316;2023-05-31T01:35:53;12.90;99.90
20815;DHT22;10568;48.176;16.316;2023-05-31T01:38:19;12.90;99.90
20815;DHT22;10568;48.176;16.316;2023-05-31T01:40:45;12.80;99.90
20815;DHT22;10568;48.176;16.316;2023-05-31T01:43:11;12.80;99.90
20815;DHT22;10568;48.176;16.316;2023-05-31T01:45:38;12.70;99.90
20815;DHT22;10568;48.176;16.316;2023-05-31T01:48:06;12.80;99.90
20815;DHT22;10568;48.176;16.316;2023-05-31T01:50:36;12.80;99.90
20815;DHT22;10568;48.176;16.316;2023-05-31T01:53:05;12.70;99.90
20815;DHT22;10568;48.176;16.316;2023-05-31T01:55:31;12.70;99.90
20815;DHT22;10568;48.176;16.316;2023-05-31T01:57:58;12.70;99.90
20815;DHT22;10568;48.176;16.316;2023-05-31T02:00:25;12.60;99.90
20815;DHT22;10568;48.176;16.316;2023-05-31T02:02:51;12.60;99.90
20815;DHT22;10568;48.176;16.316;2023-05-31T02:05:18;12.60;99.90
20815;DHT22;10568;48.176;16.316;2023-05-31T02:07:45;12.50;99.90
20815;DHT22;10568;48.176;16.316;2023-05-31T02:10:12;12.60;99.90
20815;DHT22;10568;48.176;16.316;2023-05-31T02:12:38;12.50;99.90
20815;DHT22;10568;48.176;16.316;2023-05-31T02:15:05;12.40;99.90
20815;DHT22;10568;48.176;16.316;2023-05-31T02:17:37;12.50;99.90
20815;DHT22;10568;48.176;16.316;2023-05-31T02:20:09;12.50;99.90
20815;DHT22;10568;48.176;16.316;2023-05-31T02:22:39;12.40;99.90
20815;DHT22;10568;48.176;16.316;2023-05-31T02:25:05;12.40;99.90
20815;DHT22;10568;48.176;16.316;2023-05-31T02:27:30;12.40;99.90
20815;DHT22;10568;48.176;16.316;2023-05-31T02:29:56;12.40;99.90
20815;DHT22;10568;48.176;16.316;2023-05-31T02:32:22;12.30;99.90
20815;DHT22;10568;48.176;16.316;2023-05-31T02:34:48;12.30;99.90
20815;DHT22;10568;48.176;16.316;2023-05-31T02:37:13;12.20;99.90
20815;DHT22;10568;48.176;16.316;2023-05-31T02:39:39;12.20;99.90
20815;DHT22;10568;48.176;16.316;2023-05-31T02:42:05;12.20;99.90
20815;DHT22;10568;48.176;16.316;2023-05-31T02:44:31;12.20;99.90
20815;DHT22;10568;48.176;16.316;2023-05-31T02:46:56;12.20;99.90
20815;DHT22;10568;48.176;16.316;2023-05-31T02:49:22;12.20;99.90
20815;DHT22;10568;48.176;16.316;2023-05-31T02:51:48;12.10;99.90
20815;DHT22;10568;48.176;16.316;2023-05-31T02:54:13;12.00;99.90
20815;DHT22;10568;48.176;16.316;2023-05-31T02:56:39;12.00;99.90
20815;DHT22;10568;48.176;16.316;2023-05-31T02:59:05;12.00;99.90
20815;DHT22;10568;48.176;16.316;2023-05-31T03:01:30;11.90;99.90
20815;DHT22;10568;48.176;16.316;2023-05-31T03:03:56;11.90;99.90
20815;DHT22;10568;48.176;16.316;2023-05-31T03:06:22;11.90;99.90
20815;DHT22;10568;48.176;16.316;2023-05-31T03:08:48;11.90;99.90
20815;DHT22;10568;48.176;16.316;2023-05-31T03:11:14;11.90;99.90
20815;DHT22;10568;48.176;16.316;2023-05-31T03:13:40;11.90;99.90
20815;DHT22;10568;48.176;16.316;2023-05-31T03:16:06;11.80;99.90
20815;DHT22;10568;48.176;16.316;2023-05-31T03:18:32;11.90;99.90
20815;DHT22;10568;48.176;16.316;2023-05-31T03:20:57;11.80;99.90
20815;DHT22;10568;48.176;16.316;2023-05-31T03:23:23;11.80;99.90
20815;DHT22;10568;48.176;16.316;2023-05-31T03:25:49;11.80;99.90
20815;DHT22;10568;48.176;16.316;2023-05-31T03:28:14;11.80;99.90
20815;DHT22;10568;48.176;16.316;2023-05-31T03:30:40;11.80;99.90
20815;DHT22;10568;48.176;16.316;2023-05-31T03:33:06;11.70;99.90
20815;DHT22;10568;48.176;16.316;2023-05-31T03:35:33;11.70;99.90
20815;DHT22;10568;48.176;16.316;2023-05-31T03:37:59;11.70;99.90
20815;DHT22;10568;48.176;16.316;2023-05-31T03:40:24;11.70;99.90
20815;DHT22;10568;48.176;16.316;2023-05-31T03:42:50;11.80;99.90
20815;DHT22;10568;48.176;16.316;2023-05-31T03:45:50;11.80;99.90
20815;DHT22;10568;48.176;16.316;2023-05-31T03:48:16;11.80;99.90
20815;DHT22;10568;48.176;16.316;2023-05-31T03:50:43;11.80;99.90
20815;DHT22;10568;48.176;16.316;2023-05-31T03:53:09;11.90;99.90
20815;DHT22;10568;48.176;16.316;2023-05-31T03:55:35;11.90;99.90
20815;DHT22;10568;48.176;16.316;2023-05-31T03:58:02;11.90;99.90
20815;DHT22;10568;48.176;16.316;2023-05-31T04:00:28;11.90;99.90
20815;DHT22;10568;48.176;16.316;2023-05-31T04:02:54;11.90;99.90
20815;DHT22;10568;48.176;16.316;2023-05-31T04:05:20;12.00;99.90
20815;DHT22;10568;48.176;16.316;2023-05-31T04:07:46;12.00;99.90
20815;DHT22;10568;48.176;16.316;2023-05-31T04:10:12;12.10;99.90
20815;DHT22;10568;48.176;16.316;2023-05-31T04:12:37;12.10;99.90
20815;DHT22;10568;48.176;16.316;2023-05-31T04:15:03;12.20;99.90
20815;DHT22;10568;48.176;16.316;2023-05-31T04:17:29;12.20;99.90
20815;DHT22;10568;48.176;16.316;2023-05-31T04:19:55;12.20;99.90
20815;DHT22;10568;48.176;16.316;2023-05-31T04:22:20;12.30;99.90
20815;DHT22;10568;48.176;16.316;2023-05-31T04:24:48;12.30;99.90
20815;DHT22;10568;48.176;16.316;2023-05-31T04:27:13;12.40;99.90
20815;DHT22;10568;48.176;16.316;2023-05-31T04:29:44;12.40;99.90
20815;DHT22;10568;48.176;16.316;2023-05-31T04:32:16;12.50;99.90
20815;DHT22;10568;48.176;16.316;2023-05-31T04:34:41;12.60;99.90
20815;DHT22;10568;48.176;16.316;2023-05-31T04:37:09;12.60;99.90
20815;DHT22;10568;48.176;16.316;2023-05-31T04:39:35;12.60;99.90
20815;DHT22;10568;48.176;16.316;2023-05-31T04:42:01;12.60;99.90
20815;DHT22;10568;48.176;16.316;2023-05-31T04:44:28;12.70;99.90
20815;DHT22;10568;48.176;16.316;2023-05-31T04:46:53;12.80;99.90
20815;DHT22;10568;48.176;16.316;2023-05-31T04:49:20;12.80;99.90
20815;DHT22;10568;48.176;16.316;2023-05-31T04:51:45;12.80;99.90
20815;DHT22;10568;48.176;16.316;2023-05-31T04:54:12;13.00;99.90
20815;DHT22;10568;48.176;16.316;2023-05-31T04:56:43;13.10;99.90
20815;DHT22;10568;48.176;16.316;2023-05-31T04:59:09;13.10;99.90
20815;DHT22;10568;48.176;16.316;2023-05-31T05:01:35;13.20;99.90
20815;DHT22;10568;48.176;16.316;2023-05-31T05:04:02;13.20;99.90
20815;DHT22;10568;48.176;16.316;2023-05-31T05:06:28;13.40;99.90
20815;DHT22;10568;48.176;16.316;2023-05-31T05:08:54;13.40;99.90
20815;DHT22;10568;48.176;16.316;2023-05-31T05:11:20;13.50;99.90
20815;DHT22;10568;48.176;16.316;2023-05-31T05:13:46;13.60;99.90
20815;DHT22;10568;48.176;16.316;2023-05-31T05:16:12;13.60;99.90
20815;DHT22;10568;48.176;16.316;2023-05-31T05:18:38;13.70;99.90
20815;DHT22;10568;48.176;16.316;2023-05-31T05:21:04;13.80;99.90
20815;DHT22;10568;48.176;16.316;2023-05-31T05:23:29;13.90;99.90
20815;DHT22;10568;48.176;16.316;2023-05-31T05:25:57;14.10;99.90
20815;DHT22;10568;48.176;16.316;2023-05-31T05:28:23;14.10;99.90
20815;DHT22;10568;48.176;16.316;2023-05-31T05:30:49;14.20;99.90
20815;DHT22;10568;48.176;16.316;2023-05-31T05:33:15;14.20;99.90
20815;DHT22;10568;48.176;16.316;2023-05-31T05:35:41;14.40;99.90
20815;DHT22;10568;48.176;16.316;2023-05-31T05:38:06;14.50;99.90
20815;DHT22;10568;48.176;16.316;2023-05-31T05:40:32;14.50;99.90
20815;DHT22;10568;48.176;16.316;2023-05-31T05:42:58;14.60;99.90
20815;DHT22;10568;48.176;16.316;2023-05-31T05:45:24;14.60;99.90
20815;DHT22;10568;48.176;16.316;2023-05-31T05:47:49;14.70;99.90
20815;DHT22;10568;48.176;16.316;2023-05-31T05:50:15;14.80;99.90
20815;DHT22;10568;48.176;16.316;2023-05-31T05:52:41;14.80;99.90
20815;DHT22;10568;48.176;16.316;2023-05-31T05:55:07;14.90;99.90
20815;DHT22;10568;48.176;16.316;2023-05-31T05:57:33;15.10;99.90
20815;DHT22;10568;48.176;16.316;2023-05-31T05:59:59;15.30;99.90
20815;DHT22;10568;48.176;16.316;2023-05-31T06:02:25;15.50;99.90
20815;DHT22;10568;48.176;16.316;2023-05-31T06:04:51;15.60;99.90
20815;DHT22;10568;48.176;16.316;2023-05-31T06:07:17;15.80;99.90
20815;DHT22;10568;48.176;16.316;2023-05-31T06:09:43;16.00;99.90
20815;DHT22;10568;48.176;16.316;2023-05-31T06:12:10;16.00;99.90
20815;DHT22;10568;48.176;16.316;2023-05-31T06:14:36;16.10;99.90
20815;DHT22;10568;48.176;16.316;2023-05-31T06:17:02;16.30;99.90
20815;DHT22;10568;48.176;16.316;2023-05-31T06:19:28;16.40;99.90
20815;DHT22;10568;48.176;16.316;2023-05-31T06:21:54;16.70;99.90
20815;DHT22;10568;48.176;16.316;2023-05-31T06:24:23;17.20;99.90
20815;DHT22;10568;48.176;16.316;2023-05-31T06:26:49;18.00;99.90
20815;DHT22;10568;48.176;16.316;2023-05-31T06:29:15;18.60;99.90
20815;DHT22;10568;48.176;16.316;2023-05-31T06:31:40;19.20;99.90
20815;DHT22;10568;48.176;16.316;2023-05-31T06:34:08;19.70;99.90
20815;DHT22;10568;48.176;16.316;2023-05-31T06:36:33;20.00;99.90
20815;DHT22;10568;48.176;16.316;2023-05-31T06:39:00;20.30;99.90
20815;DHT22;10568;48.176;16.316;2023-05-31T06:41:26;20.60;99.90
20815;DHT22;10568;48.176;16.316;2023-05-31T06:43:53;20.00;99.90
20815;DHT22;10568;48.176;16.316;2023-05-31T06:46:19;20.10;99.90
20815;DHT22;10568;48.176;16.316;2023-05-31T06:48:44;20.00;99.90
20815;DHT22;10568;48.176;16.316;2023-05-31T06:51:10;20.30;99.90
20815;DHT22;10568;48.176;16.316;2023-05-31T06:53:36;20.30;99.90
20815;DHT22;10568;48.176;16.316;2023-05-31T06:56:02;20.70;99.90
20815;DHT22;10568;48.176;16.316;2023-05-31T06:58:31;21.00;99.60
20815;DHT22;10568;48.176;16.316;2023-05-31T07:00:58;21.10;99.90
20815;DHT22;10568;48.176;16.316;2023-05-31T07:03:24;20.90;99.50
20815;DHT22;10568;48.176;16.316;2023-05-31T07:05:51;20.40;98.40
20815;DHT22;10568;48.176;16.316;2023-05-31T07:08:17;20.20;99.90
20815;DHT22;10568;48.176;16.316;2023-05-31T07:10:43;20.20;99.90
20815;DHT22;10568;48.176;16.316;2023-05-31T07:13:10;19.80;99.90
20815;DHT22;10568;48.176;16.316;2023-05-31T07:15:36;19.90;99.90
20815;DHT22;10568;48.176;16.316;2023-05-31T07:18:02;19.90;99.90
20815;DHT22;10568;48.176;16.316;2023-05-31T07:20:28;19.90;99.90
20815;DHT22;10568;48.176;16.316;2023-05-31T07:22:56;20.20;99.90
20815;DHT22;10568;48.176;16.316;2023-05-31T07:25:22;20.30;99.90
20815;DHT22;10568;48.176;16.316;2023-05-31T07:27:49;20.30;99.90
20815;DHT22;10568;48.176;16.316;2023-05-31T07:30:15;20.60;99.90
20815;DHT22;10568;48.176;16.316;2023-05-31T07:32:40;20.60;99.70
20815;DHT22;10568;48.176;16.316;2023-05-31T07:35:06;20.70;99.90
20815;DHT22;10568;48.176;16.316;2023-05-31T07:37:32;21.00;99.90
20815;DHT22;10568;48.176;16.316;2023-05-31T07:39:58;21.00;99.90
20815;DHT22;10568;48.176;16.316;2023-05-31T07:42:25;21.30;99.90
20815;DHT22;10568;48.176;16.316;2023-05-31T07:44:51;21.20;99.90
20815;DHT22;10568;48.176;16.316;2023-05-31T07:47:16;21.20;99.90
20815;DHT22;10568;48.176;16.316;2023-05-31T07:49:44;21.80;99.90
20815;DHT22;10568;48.176;16.316;2023-05-31T07:52:10;22.20;99.90
20815;DHT22;10568;48.176;16.316;2023-05-31T07:54:36;22.50;99.90
20815;DHT22;10568;48.176;16.316;2023-05-31T07:57:01;22.60;99.90
20815;DHT22;10568;48.176;16.316;2023-05-31T07:59:27;22.90;97.20
20815;DHT22;10568;48.176;16.316;2023-05-31T08:01:53;23.20;97.20
20815;DHT22;10568;48.176;16.316;2023-05-31T08:04:19;23.30;99.90
20815;DHT22;10568;48.176;16.316;2023-05-31T08:06:45;23.60;97.50
20815;DHT22;10568;48.176;16.316;2023-05-31T08:09:11;23.50;98.60
20815;DHT22;10568;48.176;16.316;2023-05-31T08:11:37;23.40;95.70
20815;DHT22;10568;48.176;16.316;2023-05-31T08:14:04;23.40;95.60
20815;DHT22;10568;48.176;16.316;2023-05-31T08:16:31;23.20;97.00
20815;DHT22;10568;48.176;16.316;2023-05-31T08:18:58;23.50;96.40
20815;DHT22;10568;48.176;16.316;2023-05-31T08:21:24;23.90;99.30
20815;DHT22;10568;48.176;16.316;2023-05-31T08:23:50;23.90;96.00
20815;DHT22;10568;48.176;16.316;2023-05-31T08:26:16;24.00;94.40
20815;DHT22;10568;48.176;16.316;2023-05-31T08:28:42;24.00;94.50
20815;DHT22;10568;48.176;16.316;2023-05-31T08:31:08;24.40;99.20
20815;DHT22;10568;48.176;16.316;2023-05-31T08:33:34;24.50;94.60
20815;DHT22;10568;48.176;16.316;2023-05-31T08:36:00;24.60;95.00
20815;DHT22;10568;48.176;16.316;2023-05-31T08:38:29;24.50;95.00
20815;DHT22;10568;48.176;16.316;2023-05-31T08:40:59;24.50;94.10
20815;DHT22;10568;48.176;16.316;2023-05-31T08:43:26;24.40;93.30
20815;DHT22;10568;48.176;16.316;2023-05-31T08:45:54;24.50;93.00
20815;DHT22;10568;48.176;16.316;2023-05-31T08:51:02;25.00;94.40
20815;DHT22;10568;48.176;16.316;2023-05-31T08:53:31;25.10;93.80
20815;DHT22;10568;48.176;16.316;2023-05-31T08:56:00;25.20;92.30
20815;DHT22;10568;48.176;16.316;2023-05-31T08:58:27;25.10;97.40
20815;DHT22;10568;48.176;16.316;2023-05-31T09:00:54;25.30;97.50
20815;DHT22;10568;48.176;16.316;2023-05-31T09:03:21;25.50;93.00
20815;DHT22;10568;48.176;16.316;2023-05-31T09:05:48;26.10;93.00
20815;DHT22;10568;48.176;16.316;2023-05-31T09:08:13;26.30;92.00
20815;DHT22;10568;48.176;16.316;2023-05-31T09:10:40;26.30;91.40
20815;DHT22;10568;48.176;16.316;2023-05-31T09:16:15;26.30;91.10
20815;DHT22;10568;48.176;16.316;2023-05-31T09:18:40;26.90;90.80
20815;DHT22;10568;48.176;16.316;2023-05-31T09:21:11;27.00;91.00
20815;DHT22;10568;48.176;16.316;2023-05-31T09:23:37;27.10;93.40
20815;DHT22;10568;48.176;16.316;2023-05-31T09:26:06;27.00;91.60
20815;DHT22;10568;48.176;16.316;2023-05-31T09:28:33;27.20;91.50
20815;DHT22;10568;48.176;16.316;2023-05-31T09:31:04;27.20;91.10
20815;DHT22;10568;48.176;16.316;2023-05-31T09:33:44;27.20;90.40
20815;DHT22;10568;48.176;16.316;2023-05-31T09:36:11;27.60;92.80
20815;DHT22;10568;48.176;16.316;2023-05-31T09:38:39;27.90;91.70
20815;DHT22;10568;48.176;16.316;2023-05-31T09:41:17;28.40;92.00
20815;DHT22;10568;48.176;16.316;2023-05-31T09:43:46;27.90;87.30
20815;DHT22;10568;48.176;16.316;2023-05-31T09:46:17;28.30;89.70
20815;DHT22;10568;48.176;16.316;2023-05-31T09:49:19;27.90;86.80
20815;DHT22;10568;48.176;16.316;2023-05-31T09:51:52;28.50;89.70
20815;DHT22;10568;48.176;16.316;2023-05-31T09:54:39;28.50;89.40
20815;DHT22;10568;48.176;16.316;2023-05-31T09:57:05;28.50;88.80
20815;DHT22;10568;48.176;16.316;2023-05-31T09:59:34;28.60;90.00
20815;DHT22;10568;48.176;16.316;2023-05-31T10:02:01;28.70;88.60
20815;DHT22;10568;48.176;16.316;2023-05-31T10:04:40;28.70;87.00
20815;DHT22;10568;48.176;16.316;2023-05-31T10:07:05;28.20;88.70
20815;DHT22;10568;48.176;16.316;2023-05-31T10:09:31;28.70;88.70
20815;DHT22;10568;48.176;16.316;2023-05-31T10:11:58;29.00;88.00
20815;DHT22;10568;48.176;16.316;2023-05-31T10:14:29;29.00;90.60
20815;DHT22;10568;48.176;16.316;2023-05-31T10:16:59;28.60;86.60
20815;DHT22;10568;48.176;16.316;2023-05-31T10:19:40;28.80;88.70
20815;DHT22;10568;48.176;16.316;2023-05-31T10:22:10;28.30;87.70
20815;DHT22;10568;48.176;16.316;2023-05-31T10:24:52;28.50;90.70
20815;DHT22;10568;48.176;16.316;2023-05-31T10:27:28;28.70;82.00
20815;DHT22;10568;48.176;16.316;2023-05-31T10:30:00;28.90;83.20
20815;DHT22;10568;48.176;16.316;2023-05-31T10:32:33;28.60;91.20
20815;DHT22;10568;48.176;16.316;2023-05-31T10:35:00;28.60;87.70
20815;DHT22;10568;48.176;16.316;2023-05-31T10:37:27;28.50;93.20
20815;DHT22;10568;48.176;16.316;2023-05-31T10:43:24;28.70;91.50
20815;DHT22;10568;48.176;16.316;2023-05-31T10:45:53;29.10;84.50
20815;DHT22;10568;48.176;16.316;2023-05-31T10:48:45;29.50;80.70
20815;DHT22;10568;48.176;16.316;2023-05-31T10:51:09;29.00;81.40
20815;DHT22;10568;48.176;16.316;2023-05-31T10:53:39;29.20;86.40
20815;DHT22;10568;48.176;16.316;2023-05-31T10:56:07;29.90;90.90
20815;DHT22;10568;48.176;16.316;2023-05-31T10:58:39;29.80;81.30
20815;DHT22;10568;48.176;16.316;2023-05-31T11:01:11;29.50;78.40
20815;DHT22;10568;48.176;16.316;2023-05-31T11:03:49;29.30;86.80
20815;DHT22;10568;48.176;16.316;2023-05-31T11:06:17;29.90;86.10
20815;DHT22;10568;48.176;16.316;2023-05-31T11:09:10;30.20;82.40
20815;DHT22;10568;48.176;16.316;2023-05-31T11:14:08;30.20;90.40
20815;DHT22;10568;48.176;16.316;2023-05-31T11:19:35;30.70;82.30
20815;DHT22;10568;48.176;16.316;2023-05-31T11:22:08;30.40;79.30
20815;DHT22;10568;48.176;16.316;2023-05-31T11:24:39;30.80;85.20
20815;DHT22;10568;48.176;16.316;2023-05-31T11:27:20;29.60;81.70
20815;DHT22;10568;48.176;16.316;2023-05-31T11:32:20;28.60;83.30
20815;DHT22;10568;48.176;16.316;2023-05-31T11:34:58;29.10;87.50
20815;DHT22;10568;48.176;16.316;2023-05-31T11:37:28;29.80;81.80
20815;DHT22;10568;48.176;16.316;2023-05-31T11:39:54;29.90;77.00
20815;DHT22;10568;48.176;16.316;2023-05-31T11:42:21;30.30;84.00
20815;DHT22;10568;48.176;16.316;2023-05-31T11:44:47;30.20;80.30
20815;DHT22;10568;48.176;16.316;2023-05-31T11:47:18;29.50;81.60
20815;DHT22;10568;48.176;16.316;2023-05-31T11:49:45;29.10;80.20
20815;DHT22;10568;48.176;16.316;2023-05-31T11:52:16;28.80;81.40
20815;DHT22;10568;48.176;16.316;2023-05-31T11:54:43;29.00;92.80
20815;DHT22;10568;48.176;16.316;2023-05-31T11:57:11;29.20;81.20
20815;DHT22;10568;48.176;16.316;2023-05-31T11:59:39;29.60;82.70
20815;DHT22;10568;48.176;16.316;2023-05-31T12:02:07;30.20;92.10
20815;DHT22;10568;48.176;16.316;2023-05-31T12:07:02;29.30;78.30
20815;DHT22;10568;48.176;16.316;2023-05-31T12:09:47;29.90;76.20
20815;DHT22;10568;48.176;16.316;2023-05-31T12:12:13;29.60;75.50
20815;DHT22;10568;48.176;16.316;2023-05-31T12:14:50;29.80;77.90
20815;DHT22;10568;48.176;16.316;2023-05-31T12:17:20;30.00;79.20
20815;DHT22;10568;48.176;16.316;2023-05-31T12:19:50;30.20;77.60
20815;DHT22;10568;48.176;16.316;2023-05-31T12:22:16;30.20;80.50
20815;DHT22;10568;48.176;16.316;2023-05-31T12:24:52;30.70;85.80
20815;DHT22;10568;48.176;16.316;2023-05-31T12:27:20;31.10;79.10
20815;DHT22;10568;48.176;16.316;2023-05-31T12:29:46;30.40;75.40
20815;DHT22;10568;48.176;16.316;2023-05-31T12:32:12;31.00;82.50
20815;DHT22;10568;48.176;16.316;2023-05-31T12:34:38;31.00;71.40
20815;DHT22;10568;48.176;16.316;2023-05-31T12:37:09;31.50;81.20
20815;DHT22;10568;48.176;16.316;2023-05-31T12:39:36;30.70;79.80
20815;DHT22;10568;48.176;16.316;2023-05-31T12:42:03;31.20;80.10
20815;DHT22;10568;48.176;16.316;2023-05-31T12:44:32;31.40;78.90
20815;DHT22;10568;48.176;16.316;2023-05-31T12:47:02;31.40;81.50
20815;DHT22;10568;48.176;16.316;2023-05-31T12:49:30;32.10;81.00
20815;DHT22;10568;48.176;16.316;2023-05-31T12:52:09;31.80;71.50
20815;DHT22;10568;48.176;16.316;2023-05-31T12:54:39;31.40;73.10
20815;DHT22;10568;48.176;16.316;2023-05-31T12:57:09;31.50;72.70
20815;DHT22;10568;48.176;16.316;2023-05-31T12:59:35;31.90;75.00
20815;DHT22;10568;48.176;16.316;2023-05-31T13:02:03;32.00;79.60
20815;DHT22;10568;48.176;16.316;2023-05-31T13:04:29;31.00;70.40
20815;DHT22;10568;48.176;16.316;2023-05-31T13:06:56;30.50;72.90
20815;DHT22;10568;48.176;16.316;2023-05-31T13:09:24;29.90;72.40
20815;DHT22;10568;48.176;16.316;2023-05-31T13:11:50;29.20;71.40
20815;DHT22;10568;48.176;16.316;2023-05-31T13:17:32;29.70;75.70
20815;DHT22;10568;48.176;16.316;2023-05-31T13:19:59;30.40;85.60
20815;DHT22;10568;48.176;16.316;2023-05-31T13:22:24;30.30;74.30
20815;DHT22;10568;48.176;16.316;2023-05-31T13:24:50;30.80;80.70
20815;DHT22;10568;48.176;16.316;2023-05-31T13:27:16;31.00;76.60
20815;DHT22;10568;48.176;16.316;2023-05-31T13:29:42;30.70;75.50
20815;DHT22;10568;48.176;16.316;2023-05-31T13:32:07;30.40;69.90
20815;DHT22;10568;48.176;16.316;2023-05-31T13:34:33;30.80;72.80
20815;DHT22;10568;48.176;16.316;2023-05-31T13:36:59;31.30;79.30
20815;DHT22;10568;48.176;16.316;2023-05-31T13:39:26;31.20;72.10
20815;DHT22;10568;48.176;16.316;2023-05-31T13:41:51;30.70;67.70
20815;DHT22;10568;48.176;16.316;2023-05-31T13:44:17;30.80;69.30
20815;DHT22;10568;48.176;16.316;2023-05-31T13:46:43;30.70;74.20
20815;DHT22;10568;48.176;16.316;2023-05-31T13:49:09;31.00;77.80
20815;DHT22;10568;48.176;16.316;2023-05-31T13:51:35;30.70;72.20
20815;DHT22;10568;48.176;16.316;2023-05-31T13:54:00;30.60;79.80
20815;DHT22;10568;48.176;16.316;2023-05-31T13:56:26;30.60;75.40
20815;DHT22;10568;48.176;16.316;2023-05-31T13:58:52;30.20;75.00
20815;DHT22;10568;48.176;16.316;2023-05-31T14:01:18;30.30;73.40
20815;DHT22;10568;48.176;16.316;2023-05-31T14:03:44;30.00;73.50
20815;DHT22;10568;48.176;16.316;2023-05-31T14:06:10;29.90;72.60
20815;DHT22;10568;48.176;16.316;2023-05-31T14:08:36;29.30;75.20
20815;DHT22;10568;48.176;16.316;2023-05-31T14:11:02;29.10;74.00
20815;DHT22;10568;48.176;16.316;2023-05-31T14:13:28;28.70;81.60
20815;DHT22;10568;48.176;16.316;2023-05-31T14:15:55;28.50;73.50
20815;DHT22;10568;48.176;16.316;2023-05-31T14:18:22;28.20;75.10
20815;DHT22;10568;48.176;16.316;2023-05-31T14:20:50;27.80;79.10
20815;DHT22;10568;48.176;16.316;2023-05-31T14:23:18;27.60;77.00
20815;DHT22;10568;48.176;16.316;2023-05-31T14:25:44;27.30;80.50
20815;DHT22;10568;48.176;16.316;2023-05-31T14:28:10;27.10;84.20
20815;DHT22;10568;48.176;16.316;2023-05-31T14:30:35;26.60;81.40
20815;DHT22;10568;48.176;16.316;2023-05-31T14:33:02;26.30;80.00
20815;DHT22;10568;48.176;16.316;2023-05-31T14:35:30;26.20;81.50
20815;DHT22;10568;48.176;16.316;2023-05-31T14:37:56;26.10;80.90
20815;DHT22;10568;48.176;16.316;2023-05-31T14:40:21;25.80;80.20
20815;DHT22;10568;48.176;16.316;2023-05-31T14:42:48;25.70;78.90
20815;DHT22;10568;48.176;16.316;2023-05-31T14:45:13;25.50;80.90
20815;DHT22;10568;48.176;16.316;2023-05-31T14:47:39;25.70;79.30
20815;DHT22;10568;48.176;16.316;2023-05-31T14:50:05;25.50;84.10
20815;DHT22;10568;48.176;16.316;2023-05-31T14:52:31;25.60;82.50
20815;DHT22;10568;48.176;16.316;2023-05-31T14:54:57;25.40;79.90
20815;DHT22;10568;48.176;16.316;2023-05-31T14:57:22;25.40;81.50
20815;DHT22;10568;48.176;16.316;2023-05-31T14:59:48;25.40;85.70
20815;DHT22;10568;48.176;16.316;2023-05-31T15:02:14;25.20;80.50
20815;DHT22;10568;48.176;16.316;2023-05-31T15:04:40;25.40;84.80
20815;DHT22;10568;48.176;16.316;2023-05-31T15:07:06;25.50;83.50
20815;DHT22;10568;48.176;16.316;2023-05-31T15:09:32;25.40;80.90
20815;DHT22;10568;48.176;16.316;2023-05-31T15:11:57;25.50;88.00
20815;DHT22;10568;48.176;16.316;2023-05-31T15:14:23;25.40;87.40
20815;DHT22;10568;48.176;16.316;2023-05-31T15:16:49;25.50;84.60
20815;DHT22;10568;48.176;16.316;2023-05-31T15:19:15;25.40;90.20
20815;DHT22;10568;48.176;16.316;2023-05-31T15:21:40;25.30;89.00
20815;DHT22;10568;48.176;16.316;2023-05-31T15:24:06;25.30;89.20
20815;DHT22;10568;48.176;16.316;2023-05-31T15:26:32;25.20;85.00
20815;DHT22;10568;48.176;16.316;2023-05-31T15:28:58;25.20;84.20
20815;DHT22;10568;48.176;16.316;2023-05-31T15:31:24;25.10;82.50
20815;DHT22;10568;48.176;16.316;2023-05-31T15:33:50;25.00;86.30
20815;DHT22;10568;48.176;16.316;2023-05-31T15:36:15;24.80;89.70
20815;DHT22;10568;48.176;16.316;2023-05-31T15:38:41;24.80;87.60
20815;DHT22;10568;48.176;16.316;2023-05-31T15:41:07;24.60;80.20